GLD1794 SBPA-SUSO
Flight info
| Callsign | GLD1794 |
|---|---|
| Flight time | 1h 10m |
| Altitude | 24000 |
| Route | ORATO A314 BGE/N0460F360 DCT SURV/N0420F240 W25 MEVIV |
| Aircraft | A319/M-SDE3FGHIRWY/LB1 |
Departure
| Time | 2026-05-01 11:29 |
|---|---|
| Airport | Porto Alegre-Salgado Filho International Airport (SBPA) |
Arrival
| Time | 2026-05-01 12:40 |
|---|---|
| Airport | Nueva Hesperides International Airport (SUSO) |
| Time | Latitude | Longitude | Altitude | Speed | Heading |
|---|---|---|---|---|---|
| 2026-05-01 11:10 | -29.99080 | -51.17836 | 20 ft | 0 kts | 30° |
| 2026-05-01 11:21 | -29.99081 | -51.17836 | 19 ft | 2 kts | 30° |
| 2026-05-01 11:21 | -29.99088 | -51.17841 | 19 ft | 1 kts | 30° |
| 2026-05-01 11:21 | -29.99096 | -51.17846 | 19 ft | 1 kts | 30° |
| 2026-05-01 11:21 | -29.99103 | -51.17851 | 20 ft | 1 kts | 30° |
| 2026-05-01 11:22 | -29.99111 | -51.17856 | 20 ft | 1 kts | 30° |
| 2026-05-01 11:22 | -29.99125 | -51.17865 | 20 ft | 4 kts | 34° |
| 2026-05-01 11:22 | -29.99139 | -51.17890 | 20 ft | 4 kts | 97° |
| 2026-05-01 11:22 | -29.99132 | -51.17911 | 22 ft | 0 kts | 125° |
| 2026-05-01 11:24 | -29.99137 | -51.17902 | 20 ft | 3 kts | 126° |
| 2026-05-01 11:24 | -29.99160 | -51.17799 | 19 ft | 9 kts | 98° |
| 2026-05-01 11:25 | -29.99173 | -51.17723 | 19 ft | 10 kts | 116° |
| 2026-05-01 11:25 | -29.99283 | -51.17749 | 19 ft | 10 kts | 260° |
| 2026-05-01 11:25 | -29.99283 | -51.17833 | 19 ft | 11 kts | 271° |
| 2026-05-01 11:26 | -29.99282 | -51.17921 | 19 ft | 11 kts | 269° |
| 2026-05-01 11:26 | -29.99319 | -51.18103 | 19 ft | 12 kts | 249° |
| 2026-05-01 11:26 | -29.99350 | -51.18196 | 19 ft | 13 kts | 249° |
| 2026-05-01 11:27 | -29.99411 | -51.18260 | 20 ft | 11 kts | 204° |
| 2026-05-01 11:27 | -29.99440 | -51.18227 | 21 ft | 7 kts | 94° |
| 2026-05-01 11:27 | -29.99441 | -51.18217 | 21 ft | 0 kts | 92° |
| 2026-05-01 11:29 | -29.99445 | -51.18024 | 21 ft | 63 kts | 91° |
| 2026-05-01 11:29 | -29.99461 | -51.17226 | 18 ft | 133 kts | 91° |
| 2026-05-01 11:29 | -29.99522 | -51.14779 | 1001 ft | 156 kts | 90° |
| 2026-05-01 11:30 | -29.99548 | -51.13525 | 1696 ft | 157 kts | 89° |
| 2026-05-01 11:30 | -29.99961 | -51.12271 | 2074 ft | 187 kts | 129° |
| 2026-05-01 11:30 | -30.01176 | -51.11512 | 2397 ft | 217 kts | 171° |
| 2026-05-01 11:30 | -30.02708 | -51.11882 | 2689 ft | 241 kts | 216° |
| 2026-05-01 11:31 | -30.03891 | -51.13378 | 3139 ft | 260 kts | 242° |
| 2026-05-01 11:31 | -30.04742 | -51.15269 | 3843 ft | 270 kts | 249° |
| 2026-05-01 11:31 | -30.05482 | -51.17281 | 4759 ft | 274 kts | 250° |
| 2026-05-01 11:31 | -30.06211 | -51.19334 | 5635 ft | 279 kts | 250° |
| 2026-05-01 11:32 | -30.06973 | -51.21415 | 6533 ft | 283 kts | 249° |
| 2026-05-01 11:32 | -30.07772 | -51.23511 | 7390 ft | 286 kts | 248° |
| 2026-05-01 11:32 | -30.08600 | -51.25607 | 8289 ft | 288 kts | 248° |
| 2026-05-01 11:32 | -30.09452 | -51.27705 | 9193 ft | 289 kts | 247° |
| 2026-05-01 11:33 | -30.10316 | -51.29801 | 10071 ft | 290 kts | 246° |
| 2026-05-01 11:33 | -30.10901 | -51.31222 | 10360 ft | 303 kts | 247° |
| 2026-05-01 11:33 | -30.11841 | -51.33509 | 10610 ft | 326 kts | 247° |
| 2026-05-01 11:33 | -30.12834 | -51.35923 | 11120 ft | 337 kts | 247° |
| 2026-05-01 11:34 | -30.13848 | -51.38383 | 11832 ft | 341 kts | 247° |
| 2026-05-01 11:34 | -30.14875 | -51.40870 | 12554 ft | 345 kts | 248° |
| 2026-05-01 11:34 | -30.15910 | -51.43385 | 13273 ft | 348 kts | 248° |
| 2026-05-01 11:34 | -30.16950 | -51.45920 | 13982 ft | 351 kts | 248° |
| 2026-05-01 11:35 | -30.17998 | -51.48482 | 14618 ft | 354 kts | 248° |
| 2026-05-01 11:35 | -30.19055 | -51.51071 | 15250 ft | 358 kts | 248° |
| 2026-05-01 11:35 | -30.20123 | -51.53686 | 15864 ft | 361 kts | 249° |
| 2026-05-01 11:35 | -30.21201 | -51.56325 | 16474 ft | 365 kts | 249° |
| 2026-05-01 11:36 | -30.22289 | -51.58990 | 17094 ft | 369 kts | 249° |
| 2026-05-01 11:36 | -30.23377 | -51.61654 | 17700 ft | 372 kts | 249° |
| 2026-05-01 11:36 | -30.24491 | -51.64380 | 18327 ft | 376 kts | 249° |
| 2026-05-01 11:36 | -30.25613 | -51.67129 | 18870 ft | 380 kts | 249° |
| 2026-05-01 11:37 | -30.26744 | -51.69901 | 19460 ft | 381 kts | 249° |
| 2026-05-01 11:37 | -30.27878 | -51.72679 | 20060 ft | 383 kts | 249° |
| 2026-05-01 11:37 | -30.29015 | -51.75468 | 20665 ft | 384 kts | 250° |
| 2026-05-01 11:37 | -30.30155 | -51.78271 | 21249 ft | 385 kts | 250° |
| 2026-05-01 11:38 | -30.31296 | -51.81082 | 21841 ft | 386 kts | 250° |
| 2026-05-01 11:38 | -30.32444 | -51.83901 | 22413 ft | 389 kts | 249° |
| 2026-05-01 11:38 | -30.33663 | -51.86663 | 22960 ft | 392 kts | 247° |
| 2026-05-01 11:38 | -30.34983 | -51.89432 | 23484 ft | 394 kts | 246° |
| 2026-05-01 11:39 | -30.36352 | -51.92195 | 23948 ft | 397 kts | 245° |
| 2026-05-01 11:39 | -30.37736 | -51.94959 | 24409 ft | 397 kts | 245° |
| 2026-05-01 11:39 | -30.39118 | -51.97738 | 24852 ft | 398 kts | 246° |
| 2026-05-01 11:39 | -30.40490 | -52.00528 | 25286 ft | 399 kts | 246° |
| 2026-05-01 11:40 | -30.41851 | -52.03332 | 25734 ft | 400 kts | 247° |
| 2026-05-01 11:40 | -30.43203 | -52.06146 | 26174 ft | 400 kts | 247° |
| 2026-05-01 11:40 | -30.44557 | -52.08973 | 26601 ft | 402 kts | 247° |
| 2026-05-01 11:40 | -30.45911 | -52.11810 | 27044 ft | 402 kts | 248° |
| 2026-05-01 11:41 | -30.47267 | -52.14650 | 27469 ft | 404 kts | 248° |
| 2026-05-01 11:41 | -30.48630 | -52.17498 | 27876 ft | 405 kts | 248° |
| 2026-05-01 11:41 | -30.50000 | -52.20358 | 28285 ft | 406 kts | 248° |
| 2026-05-01 11:41 | -30.51374 | -52.23224 | 28691 ft | 407 kts | 248° |
| 2026-05-01 11:42 | -30.52759 | -52.26121 | 28856 ft | 414 kts | 248° |
| 2026-05-01 11:42 | -30.54162 | -52.29066 | 29004 ft | 420 kts | 248° |
| 2026-05-01 11:42 | -30.55585 | -52.32054 | 29138 ft | 426 kts | 248° |
| 2026-05-01 11:42 | -30.57026 | -52.35080 | 29289 ft | 430 kts | 248° |
| 2026-05-01 11:43 | -30.58464 | -52.38097 | 29569 ft | 432 kts | 248° |
| 2026-05-01 11:43 | -30.59918 | -52.41143 | 29974 ft | 431 kts | 248° |
| 2026-05-01 11:43 | -30.61366 | -52.44170 | 30376 ft | 429 kts | 248° |
| 2026-05-01 11:44 | -30.64249 | -52.50208 | 31152 ft | 425 kts | 248° |
| 2026-05-01 11:44 | -30.65672 | -52.53202 | 31562 ft | 423 kts | 248° |
| 2026-05-01 11:44 | -30.67090 | -52.56185 | 31917 ft | 421 kts | 248° |
| 2026-05-01 11:44 | -30.68506 | -52.59166 | 32266 ft | 420 kts | 248° |
| 2026-05-01 11:45 | -30.69917 | -52.62132 | 32634 ft | 419 kts | 248° |
| 2026-05-01 11:45 | -30.71318 | -52.65088 | 33014 ft | 417 kts | 248° |
| 2026-05-01 11:45 | -30.72690 | -52.67995 | 33389 ft | 415 kts | 248° |
| 2026-05-01 11:45 | -30.74075 | -52.70931 | 33775 ft | 413 kts | 248° |
| 2026-05-01 11:46 | -30.75455 | -52.73851 | 34162 ft | 411 kts | 248° |
| 2026-05-01 11:46 | -30.76828 | -52.76760 | 34526 ft | 409 kts | 249° |
| 2026-05-01 11:46 | -30.78193 | -52.79647 | 34872 ft | 407 kts | 249° |
| 2026-05-01 11:46 | -30.79553 | -52.82530 | 35226 ft | 405 kts | 249° |
| 2026-05-01 11:47 | -30.80902 | -52.85389 | 35593 ft | 402 kts | 249° |
| 2026-05-01 11:47 | -30.82241 | -52.88231 | 35949 ft | 400 kts | 249° |
| 2026-05-01 11:47 | -30.83573 | -52.91064 | 36056 ft | 398 kts | 249° |
| 2026-05-01 11:47 | -30.84899 | -52.93886 | 36077 ft | 396 kts | 249° |
| 2026-05-01 11:48 | -30.87543 | -52.99509 | 36073 ft | 395 kts | 249° |
| 2026-05-01 11:48 | -30.90171 | -53.05123 | 36078 ft | 394 kts | 249° |
| 2026-05-01 11:49 | -30.92798 | -53.10737 | 36077 ft | 394 kts | 249° |
| 2026-05-01 11:49 | -30.95409 | -53.16331 | 36077 ft | 395 kts | 249° |
| 2026-05-01 11:50 | -30.98032 | -53.21955 | 36080 ft | 395 kts | 250° |
| 2026-05-01 11:50 | -31.00653 | -53.27586 | 36089 ft | 395 kts | 250° |
| 2026-05-01 11:51 | -31.03280 | -53.33218 | 36086 ft | 395 kts | 250° |
| 2026-05-01 11:51 | -31.05905 | -53.38858 | 36084 ft | 395 kts | 250° |
| 2026-05-01 11:52 | -31.08521 | -53.44498 | 36082 ft | 395 kts | 250° |
| 2026-05-01 11:52 | -31.11133 | -53.50148 | 36080 ft | 396 kts | 250° |
| 2026-05-01 11:53 | -31.13751 | -53.55806 | 36075 ft | 395 kts | 250° |
| 2026-05-01 11:53 | -31.16346 | -53.61412 | 36073 ft | 395 kts | 250° |
| 2026-05-01 11:54 | -31.18959 | -53.67057 | 36070 ft | 395 kts | 250° |
| 2026-05-01 11:54 | -31.21562 | -53.72710 | 36070 ft | 395 kts | 250° |
| 2026-05-01 11:55 | -31.24166 | -53.78376 | 36064 ft | 396 kts | 250° |
| 2026-05-01 11:55 | -31.26766 | -53.84044 | 36053 ft | 396 kts | 250° |
| 2026-05-01 11:56 | -31.29372 | -53.89724 | 36045 ft | 397 kts | 250° |
| 2026-05-01 11:56 | -31.31977 | -53.95421 | 36044 ft | 397 kts | 250° |
| 2026-05-01 11:57 | -31.34585 | -54.01123 | 36064 ft | 397 kts | 250° |
| 2026-05-01 11:57 | -31.36992 | -54.06857 | 36056 ft | 388 kts | 259° |
| 2026-05-01 11:58 | -31.37756 | -54.12949 | 36047 ft | 374 kts | 276° |
| 2026-05-01 11:58 | -31.36689 | -54.18848 | 36039 ft | 371 kts | 290° |
| 2026-05-01 11:59 | -31.35825 | -54.21687 | 36040 ft | 371 kts | 290° |
| 2026-05-01 11:59 | -31.34095 | -54.27374 | 36055 ft | 371 kts | 290° |
| 2026-05-01 12:00 | -31.31505 | -54.35895 | 36050 ft | 370 kts | 290° |
| 2026-05-01 12:01 | -31.28914 | -54.44391 | 36044 ft | 370 kts | 290° |
| 2026-05-01 12:01 | -31.27189 | -54.50025 | 36023 ft | 370 kts | 290° |
| 2026-05-01 12:02 | -31.25445 | -54.55699 | 36016 ft | 372 kts | 290° |
| 2026-05-01 12:02 | -31.23702 | -54.61390 | 36017 ft | 372 kts | 290° |
| 2026-05-01 12:03 | -31.21956 | -54.67101 | 36024 ft | 373 kts | 290° |
| 2026-05-01 12:03 | -31.20197 | -54.72803 | 36025 ft | 373 kts | 291° |
| 2026-05-01 12:04 | -31.18439 | -54.78472 | 36020 ft | 374 kts | 291° |
| 2026-05-01 12:04 | -31.16668 | -54.84186 | 36021 ft | 375 kts | 291° |
| 2026-05-01 12:05 | -31.14904 | -54.89915 | 36020 ft | 375 kts | 291° |
| 2026-05-01 12:05 | -31.12235 | -54.98520 | 36029 ft | 375 kts | 291° |
| 2026-05-01 12:06 | -31.10446 | -55.04249 | 35823 ft | 376 kts | 291° |
| 2026-05-01 12:06 | -31.09553 | -55.07117 | 35581 ft | 377 kts | 291° |
| 2026-05-01 12:06 | -31.08659 | -55.09996 | 35338 ft | 378 kts | 291° |
| 2026-05-01 12:07 | -31.07758 | -55.12886 | 35089 ft | 380 kts | 291° |
| 2026-05-01 12:07 | -31.06863 | -55.15749 | 34870 ft | 382 kts | 291° |
| 2026-05-01 12:07 | -31.05952 | -55.18663 | 34635 ft | 384 kts | 291° |
| 2026-05-01 12:07 | -31.05032 | -55.21596 | 34373 ft | 387 kts | 291° |
| 2026-05-01 12:08 | -31.04099 | -55.24557 | 34145 ft | 390 kts | 291° |
| 2026-05-01 12:08 | -31.03160 | -55.27537 | 33904 ft | 393 kts | 292° |
| 2026-05-01 12:08 | -31.02218 | -55.30541 | 33642 ft | 395 kts | 291° |
| 2026-05-01 12:08 | -31.01274 | -55.33553 | 33333 ft | 396 kts | 291° |
| 2026-05-01 12:09 | -31.00328 | -55.36573 | 33075 ft | 398 kts | 291° |
| 2026-05-01 12:09 | -30.99377 | -55.39605 | 32816 ft | 399 kts | 291° |
| 2026-05-01 12:09 | -30.98491 | -55.42676 | 32560 ft | 401 kts | 287° |
| 2026-05-01 12:09 | -30.97951 | -55.45878 | 32310 ft | 405 kts | 280° |
| 2026-05-01 12:10 | -30.97811 | -55.49178 | 32066 ft | 410 kts | 273° |
| 2026-05-01 12:10 | -30.98757 | -55.55823 | 31975 ft | 422 kts | 262° |
| 2026-05-01 12:11 | -31.00835 | -55.65747 | 31989 ft | 422 kts | 263° |
| 2026-05-01 12:11 | -31.02202 | -55.72407 | 31996 ft | 422 kts | 263° |
| 2026-05-01 12:12 | -31.03585 | -55.79055 | 32018 ft | 422 kts | 263° |
| 2026-05-01 12:12 | -31.04974 | -55.85711 | 32015 ft | 422 kts | 263° |
| 2026-05-01 12:13 | -31.06357 | -55.92373 | 32014 ft | 423 kts | 263° |
| 2026-05-01 12:13 | -31.07728 | -55.99045 | 32012 ft | 422 kts | 263° |
| 2026-05-01 12:14 | -31.09103 | -56.05709 | 32010 ft | 422 kts | 263° |
| 2026-05-01 12:14 | -31.10474 | -56.12374 | 32002 ft | 422 kts | 263° |
| 2026-05-01 12:15 | -31.11840 | -56.19041 | 32006 ft | 423 kts | 263° |
| 2026-05-01 12:15 | -31.13119 | -56.25729 | 32005 ft | 421 kts | 264° |
| 2026-05-01 12:16 | -31.14316 | -56.32421 | 32002 ft | 422 kts | 264° |
| 2026-05-01 12:16 | -31.15526 | -56.39135 | 32000 ft | 423 kts | 264° |
| 2026-05-01 12:17 | -31.16738 | -56.45812 | 31992 ft | 423 kts | 264° |
| 2026-05-01 12:17 | -31.17958 | -56.52540 | 31988 ft | 423 kts | 264° |
| 2026-05-01 12:18 | -31.19166 | -56.59265 | 31999 ft | 424 kts | 264° |
| 2026-05-01 12:18 | -31.20384 | -56.66020 | 31980 ft | 425 kts | 264° |
| 2026-05-01 12:19 | -31.20996 | -56.69406 | 31742 ft | 426 kts | 264° |
| 2026-05-01 12:19 | -31.21605 | -56.72784 | 31046 ft | 427 kts | 264° |
| 2026-05-01 12:19 | -31.22214 | -56.76197 | 29967 ft | 432 kts | 264° |
| 2026-05-01 12:19 | -31.22828 | -56.79650 | 28724 ft | 436 kts | 264° |
| 2026-05-01 12:20 | -31.23442 | -56.83086 | 27546 ft | 439 kts | 264° |
| 2026-05-01 12:20 | -31.24067 | -56.86590 | 26398 ft | 442 kts | 263° |
| 2026-05-01 12:20 | -31.24697 | -56.90120 | 25272 ft | 445 kts | 263° |
| 2026-05-01 12:20 | -31.25334 | -56.93667 | 24180 ft | 445 kts | 263° |
| 2026-05-01 12:21 | -31.25964 | -56.97165 | 23030 ft | 434 kts | 263° |
| 2026-05-01 12:21 | -31.26575 | -57.00571 | 21856 ft | 423 kts | 263° |
| 2026-05-01 12:21 | -31.27162 | -57.03893 | 21030 ft | 415 kts | 262° |
| 2026-05-01 12:21 | -31.27740 | -57.07184 | 20243 ft | 411 kts | 262° |
| 2026-05-01 12:22 | -31.28312 | -57.10446 | 19472 ft | 408 kts | 262° |
| 2026-05-01 12:22 | -31.28689 | -57.12597 | 18985 ft | 408 kts | 262° |
| 2026-05-01 12:22 | -31.29448 | -57.16943 | 17935 ft | 407 kts | 262° |
| 2026-05-01 12:22 | -31.30011 | -57.20177 | 17191 ft | 405 kts | 262° |
| 2026-05-01 12:23 | -31.30576 | -57.23390 | 16490 ft | 401 kts | 262° |
| 2026-05-01 12:23 | -31.31210 | -57.26564 | 15802 ft | 401 kts | 257° |
| 2026-05-01 12:23 | -31.32139 | -57.29640 | 15129 ft | 400 kts | 253° |
| 2026-05-01 12:23 | -31.33107 | -57.32682 | 14476 ft | 398 kts | 253° |
| 2026-05-01 12:24 | -31.33743 | -57.34688 | 14056 ft | 396 kts | 254° |
| 2026-05-01 12:24 | -31.34696 | -57.37707 | 13388 ft | 394 kts | 254° |
| 2026-05-01 12:24 | -31.35634 | -57.40696 | 12763 ft | 390 kts | 254° |
| 2026-05-01 12:24 | -31.36564 | -57.43663 | 12140 ft | 385 kts | 254° |
| 2026-05-01 12:25 | -31.37478 | -57.46581 | 11540 ft | 379 kts | 254° |
| 2026-05-01 12:25 | -31.39224 | -57.52148 | 11130 ft | 346 kts | 255° |
| 2026-05-01 12:25 | -31.40037 | -57.54727 | 11007 ft | 329 kts | 255° |
| 2026-05-01 12:26 | -31.40799 | -57.57151 | 10887 ft | 315 kts | 255° |
| 2026-05-01 12:26 | -31.42230 | -57.61713 | 10608 ft | 278 kts | 256° |
| 2026-05-01 12:26 | -31.42881 | -57.63797 | 10255 ft | 269 kts | 256° |
| 2026-05-01 12:27 | -31.43507 | -57.65811 | 10055 ft | 257 kts | 256° |
| 2026-05-01 12:27 | -31.44714 | -57.69734 | 9833 ft | 255 kts | 256° |
| 2026-05-01 12:28 | -31.45917 | -57.73643 | 9584 ft | 255 kts | 256° |
| 2026-05-01 12:28 | -31.46519 | -57.75589 | 9447 ft | 254 kts | 256° |
| 2026-05-01 12:28 | -31.47722 | -57.79473 | 8832 ft | 252 kts | 256° |
| 2026-05-01 12:29 | -31.48324 | -57.81404 | 8473 ft | 252 kts | 255° |
| 2026-05-01 12:29 | -31.48922 | -57.83330 | 8112 ft | 251 kts | 255° |
| 2026-05-01 12:29 | -31.50109 | -57.87175 | 7387 ft | 250 kts | 255° |
| 2026-05-01 12:30 | -31.51288 | -57.90992 | 6744 ft | 248 kts | 254° |
| 2026-05-01 12:30 | -31.51874 | -57.92891 | 6397 ft | 247 kts | 254° |
| 2026-05-01 12:30 | -31.52458 | -57.94784 | 6026 ft | 247 kts | 254° |
| 2026-05-01 12:31 | -31.53156 | -57.96594 | 5653 ft | 250 kts | 238° |
| 2026-05-01 12:31 | -31.54316 | -57.98129 | 5284 ft | 252 kts | 230° |
| 2026-05-01 12:31 | -31.55571 | -57.99570 | 4921 ft | 251 kts | 227° |
| 2026-05-01 12:31 | -31.56814 | -58.00965 | 4542 ft | 243 kts | 227° |
| 2026-05-01 12:32 | -31.58015 | -58.02313 | 4175 ft | 235 kts | 228° |
| 2026-05-01 12:32 | -31.60353 | -58.04870 | 3447 ft | 225 kts | 228° |
| 2026-05-01 12:32 | -31.61500 | -58.06095 | 3089 ft | 221 kts | 227° |
| 2026-05-01 12:33 | -31.62589 | -58.07244 | 3000 ft | 206 kts | 229° |
| 2026-05-01 12:33 | -31.63382 | -58.08504 | 3039 ft | 180 kts | 254° |
| 2026-05-01 12:33 | -31.63598 | -58.09853 | 3015 ft | 161 kts | 278° |
| 2026-05-01 12:33 | -31.63353 | -58.11088 | 3012 ft | 152 kts | 298° |
| 2026-05-01 12:34 | -31.62750 | -58.12082 | 3015 ft | 149 kts | 317° |
| 2026-05-01 12:34 | -31.61889 | -58.12735 | 3030 ft | 155 kts | 336° |
| 2026-05-01 12:34 | -31.60782 | -58.12970 | 3027 ft | 166 kts | 358° |
| 2026-05-01 12:34 | -31.59640 | -58.12636 | 3021 ft | 174 kts | 20° |
| 2026-05-01 12:35 | -31.58590 | -58.11913 | 3011 ft | 174 kts | 24° |
| 2026-05-01 12:35 | -31.57544 | -58.11189 | 3013 ft | 175 kts | 26° |
| 2026-05-01 12:35 | -31.56560 | -58.10319 | 2866 ft | 178 kts | 31° |
| 2026-05-01 12:35 | -31.55606 | -58.09448 | 2666 ft | 168 kts | 31° |
| 2026-05-01 12:36 | -31.54719 | -58.08630 | 2482 ft | 155 kts | 30° |
| 2026-05-01 12:36 | -31.53921 | -58.07890 | 2342 ft | 140 kts | 30° |
| 2026-05-01 12:36 | -31.53187 | -58.07212 | 2193 ft | 130 kts | 30° |
| 2026-05-01 12:36 | -31.52486 | -58.06572 | 2061 ft | 127 kts | 29° |
| 2026-05-01 12:37 | -31.51795 | -58.05942 | 1931 ft | 125 kts | 29° |
| 2026-05-01 12:37 | -31.51110 | -58.05322 | 1808 ft | 124 kts | 28° |
| 2026-05-01 12:37 | -31.50425 | -58.04703 | 1677 ft | 124 kts | 30° |
| 2026-05-01 12:37 | -31.49741 | -58.04083 | 1543 ft | 125 kts | 31° |
| 2026-05-01 12:38 | -31.49055 | -58.03456 | 1398 ft | 126 kts | 30° |
| 2026-05-01 12:38 | -31.48373 | -58.02816 | 1226 ft | 125 kts | 32° |
| 2026-05-01 12:38 | -31.47697 | -58.02177 | 1041 ft | 125 kts | 34° |
| 2026-05-01 12:38 | -31.47023 | -58.01543 | 873 ft | 126 kts | 37° |
| 2026-05-01 12:39 | -31.46339 | -58.00897 | 710 ft | 125 kts | 38° |
| 2026-05-01 12:39 | -31.45649 | -58.00242 | 520 ft | 128 kts | 41° |
| 2026-05-01 12:39 | -31.44964 | -57.99575 | 297 ft | 128 kts | 41° |
| 2026-05-01 12:39 | -31.44268 | -57.98922 | 128 ft | 127 kts | 40° |
| 2026-05-01 12:40 | -31.43734 | -57.98422 | 133 ft | 57 kts | 39° |
| 2026-05-01 12:40 | -31.43609 | -57.98301 | 134 ft | 11 kts | 53° |
| 2026-05-01 12:40 | -31.43571 | -57.98268 | 134 ft | 3 kts | 278° |
| 2026-05-01 12:40 | -31.43608 | -57.98309 | 134 ft | 14 kts | 218° |
| 2026-05-01 12:41 | -31.43677 | -57.98372 | 133 ft | 10 kts | 217° |
| 2026-05-01 12:41 | -31.43708 | -57.98362 | 134 ft | 3 kts | 127° |
| 2026-05-01 12:41 | -31.43712 | -57.98352 | 134 ft | 1 kts | 113° |
| 2026-05-01 12:41 | -31.43721 | -57.98313 | 134 ft | 9 kts | 102° |
| 2026-05-01 12:42 | -31.43736 | -57.98208 | 134 ft | 16 kts | 100° |
| 2026-05-01 12:42 | -31.43747 | -57.98145 | 134 ft | 1 kts | 99° |
| 2026-05-01 12:42 | -31.43747 | -57.98142 | 134 ft | 0 kts | 93° |
| 2026-05-01 12:42 | -31.43747 | -57.98108 | 135 ft | 4 kts | 88° |
| 2026-05-01 12:43 | -31.43736 | -57.98077 | 135 ft | 4 kts | 50° |
| 2026-05-01 12:43 | -31.43717 | -57.98075 | 135 ft | 1 kts | 343° |
| 2026-05-01 12:43 | -31.43712 | -57.98076 | 135 ft | 1 kts | 352° |
| 2026-05-01 12:43 | -31.43711 | -57.98088 | 135 ft | 0 kts | 263° |